sensor_id;sensor_type;location;lat;lon;timestamp;P1;durP1;ratioP1;P2;durP2;ratioP2
4895;SDS011;2463;49.948;8.472;2023-08-01T00:01:01;88.30;;;4.40;;
4895;SDS011;2463;49.948;8.472;2023-08-01T00:03:28;89.10;;;4.30;;
4895;SDS011;2463;49.948;8.472;2023-08-01T00:05:55;88.68;;;4.30;;
4895;SDS011;2463;49.948;8.472;2023-08-01T00:08:21;88.32;;;4.10;;
4895;SDS011;2463;49.948;8.472;2023-08-01T00:10:48;88.95;;;4.75;;
4895;SDS011;2463;49.948;8.472;2023-08-01T00:13:15;87.63;;;4.03;;
4895;SDS011;2463;49.948;8.472;2023-08-01T00:15:41;88.93;;;4.35;;
4895;SDS011;2463;49.948;8.472;2023-08-01T00:18:26;88.55;;;4.57;;
4895;SDS011;2463;49.948;8.472;2023-08-01T00:20:53;88.82;;;4.55;;
4895;SDS011;2463;49.948;8.472;2023-08-01T00:23:20;87.57;;;3.95;;
4895;SDS011;2463;49.948;8.472;2023-08-01T00:25:46;88.38;;;4.38;;
4895;SDS011;2463;49.948;8.472;2023-08-01T00:28:17;90.25;;;4.43;;
4895;SDS011;2463;49.948;8.472;2023-08-01T00:30:44;88.35;;;4.30;;
4895;SDS011;2463;49.948;8.472;2023-08-01T00:33:11;87.75;;;4.18;;
4895;SDS011;2463;49.948;8.472;2023-08-01T00:35:39;90.85;;;4.60;;
4895;SDS011;2463;49.948;8.472;2023-08-01T00:38:07;90.18;;;4.68;;
4895;SDS011;2463;49.948;8.472;2023-08-01T00:40:34;88.00;;;4.15;;
4895;SDS011;2463;49.948;8.472;2023-08-01T00:43:00;89.18;;;4.50;;
4895;SDS011;2463;49.948;8.472;2023-08-01T00:45:28;88.25;;;4.38;;
4895;SDS011;2463;49.948;8.472;2023-08-01T00:47:56;87.90;;;3.80;;
4895;SDS011;2463;49.948;8.472;2023-08-01T00:50:23;88.68;;;4.20;;
4895;SDS011;2463;49.948;8.472;2023-08-01T00:52:50;88.63;;;4.38;;
4895;SDS011;2463;49.948;8.472;2023-08-01T00:55:18;88.20;;;4.10;;
4895;SDS011;2463;49.948;8.472;2023-08-01T00:57:47;87.85;;;3.97;;
4895;SDS011;2463;49.948;8.472;2023-08-01T01:00:13;87.88;;;4.22;;
4895;SDS011;2463;49.948;8.472;2023-08-01T01:02:40;90.85;;;4.45;;
4895;SDS011;2463;49.948;8.472;2023-08-01T01:05:07;90.07;;;4.20;;
4895;SDS011;2463;49.948;8.472;2023-08-01T01:07:34;88.05;;;4.35;;
4895;SDS011;2463;49.948;8.472;2023-08-01T01:10:01;88.97;;;4.20;;
4895;SDS011;2463;49.948;8.472;2023-08-01T01:12:28;88.22;;;4.20;;
4895;SDS011;2463;49.948;8.472;2023-08-01T01:14:54;88.40;;;4.10;;
4895;SDS011;2463;49.948;8.472;2023-08-01T01:17:21;88.07;;;4.30;;
4895;SDS011;2463;49.948;8.472;2023-08-01T01:19:48;89.28;;;4.35;;
4895;SDS011;2463;49.948;8.472;2023-08-01T01:22:15;87.90;;;4.13;;
4895;SDS011;2463;49.948;8.472;2023-08-01T01:24:43;88.13;;;4.38;;
4895;SDS011;2463;49.948;8.472;2023-08-01T01:27:11;87.57;;;4.13;;
4895;SDS011;2463;49.948;8.472;2023-08-01T01:29:38;88.18;;;4.20;;
4895;SDS011;2463;49.948;8.472;2023-08-01T01:32:06;88.88;;;4.18;;
4895;SDS011;2463;49.948;8.472;2023-08-01T01:34:34;87.97;;;4.15;;
4895;SDS011;2463;49.948;8.472;2023-08-01T01:37:00;89.72;;;4.70;;
4895;SDS011;2463;49.948;8.472;2023-08-01T01:39:27;88.43;;;4.38;;
4895;SDS011;2463;49.948;8.472;2023-08-01T01:41:54;89.07;;;4.47;;
4895;SDS011;2463;49.948;8.472;2023-08-01T01:44:20;91.95;;;4.72;;
4895;SDS011;2463;49.948;8.472;2023-08-01T01:46:47;88.78;;;4.43;;
4895;SDS011;2463;49.948;8.472;2023-08-01T01:49:16;89.85;;;4.65;;
4895;SDS011;2463;49.948;8.472;2023-08-01T01:51:42;87.57;;;4.03;;
4895;SDS011;2463;49.948;8.472;2023-08-01T01:54:09;89.00;;;4.55;;
4895;SDS011;2463;49.948;8.472;2023-08-01T01:56:36;89.07;;;4.10;;
4895;SDS011;2463;49.948;8.472;2023-08-01T01:59:03;87.53;;;4.05;;
4895;SDS011;2463;49.948;8.472;2023-08-01T02:01:30;90.28;;;4.43;;
4895;SDS011;2463;49.948;8.472;2023-08-01T02:03:56;88.15;;;4.65;;
4895;SDS011;2463;49.948;8.472;2023-08-01T02:06:23;88.50;;;3.83;;
4895;SDS011;2463;49.948;8.472;2023-08-01T02:08:50;88.13;;;4.03;;
4895;SDS011;2463;49.948;8.472;2023-08-01T02:11:16;88.63;;;4.28;;
4895;SDS011;2463;49.948;8.472;2023-08-01T02:13:43;88.85;;;4.07;;
4895;SDS011;2463;49.948;8.472;2023-08-01T02:16:10;89.47;;;4.10;;
4895;SDS011;2463;49.948;8.472;2023-08-01T02:18:37;89.10;;;4.10;;
4895;SDS011;2463;49.948;8.472;2023-08-01T02:21:03;87.90;;;3.97;;
4895;SDS011;2463;49.948;8.472;2023-08-01T02:23:30;88.13;;;3.80;;
4895;SDS011;2463;49.948;8.472;2023-08-01T02:25:58;88.53;;;4.20;;
4895;SDS011;2463;49.948;8.472;2023-08-01T02:28:25;89.68;;;4.40;;
4895;SDS011;2463;49.948;8.472;2023-08-01T02:30:52;90.25;;;4.53;;
4895;SDS011;2463;49.948;8.472;2023-08-01T02:33:19;88.38;;;4.25;;
4895;SDS011;2463;49.948;8.472;2023-08-01T02:35:46;89.00;;;4.63;;
4895;SDS011;2463;49.948;8.472;2023-08-01T02:38:13;88.07;;;3.90;;
4895;SDS011;2463;49.948;8.472;2023-08-01T02:40:40;88.95;;;4.60;;
4895;SDS011;2463;49.948;8.472;2023-08-01T02:43:07;90.20;;;4.38;;
4895;SDS011;2463;49.948;8.472;2023-08-01T02:45:33;90.50;;;4.10;;
4895;SDS011;2463;49.948;8.472;2023-08-01T02:48:00;88.45;;;4.10;;
4895;SDS011;2463;49.948;8.472;2023-08-01T02:50:27;89.53;;;4.15;;
4895;SDS011;2463;49.948;8.472;2023-08-01T02:52:54;87.43;;;4.18;;
4895;SDS011;2463;49.948;8.472;2023-08-01T02:55:20;87.10;;;3.95;;
4895;SDS011;2463;49.948;8.472;2023-08-01T02:57:47;88.63;;;4.10;;
4895;SDS011;2463;49.948;8.472;2023-08-01T03:00:14;88.70;;;4.43;;
4895;SDS011;2463;49.948;8.472;2023-08-01T03:02:45;88.47;;;4.28;;
4895;SDS011;2463;49.948;8.472;2023-08-01T03:05:12;87.93;;;3.90;;
4895;SDS011;2463;49.948;8.472;2023-08-01T03:07:38;88.43;;;4.70;;
4895;SDS011;2463;49.948;8.472;2023-08-01T03:10:05;87.88;;;4.00;;
4895;SDS011;2463;49.948;8.472;2023-08-01T03:12:34;88.22;;;4.30;;
4895;SDS011;2463;49.948;8.472;2023-08-01T03:15:01;88.28;;;3.63;;
4895;SDS011;2463;49.948;8.472;2023-08-01T03:17:27;87.45;;;3.90;;
4895;SDS011;2463;49.948;8.472;2023-08-01T03:19:54;87.53;;;3.90;;
4895;SDS011;2463;49.948;8.472;2023-08-01T03:22:21;88.13;;;4.10;;
4895;SDS011;2463;49.948;8.472;2023-08-01T03:24:48;88.28;;;4.68;;
4895;SDS011;2463;49.948;8.472;2023-08-01T03:27:15;87.97;;;3.53;;
4895;SDS011;2463;49.948;8.472;2023-08-01T03:29:41;87.60;;;4.00;;
4895;SDS011;2463;49.948;8.472;2023-08-01T03:32:08;87.80;;;3.85;;
4895;SDS011;2463;49.948;8.472;2023-08-01T03:34:35;87.80;;;4.07;;
4895;SDS011;2463;49.948;8.472;2023-08-01T03:37:02;93.38;;;4.40;;
4895;SDS011;2463;49.948;8.472;2023-08-01T03:39:30;90.90;;;3.80;;
4895;SDS011;2463;49.948;8.472;2023-08-01T03:41:56;87.35;;;3.80;;
4895;SDS011;2463;49.948;8.472;2023-08-01T03:44:23;88.60;;;4.30;;
4895;SDS011;2463;49.948;8.472;2023-08-01T03:46:50;87.45;;;3.72;;
4895;SDS011;2463;49.948;8.472;2023-08-01T03:49:16;87.85;;;3.95;;
4895;SDS011;2463;49.948;8.472;2023-08-01T03:51:44;86.93;;;3.70;;
4895;SDS011;2463;49.948;8.472;2023-08-01T03:54:11;87.82;;;4.28;;
4895;SDS011;2463;49.948;8.472;2023-08-01T03:56:39;87.65;;;3.83;;
4895;SDS011;2463;49.948;8.472;2023-08-01T03:59:10;88.07;;;4.20;;
4895;SDS011;2463;49.948;8.472;2023-08-01T04:01:41;88.20;;;3.60;;
4895;SDS011;2463;49.948;8.472;2023-08-01T04:04:08;86.70;;;3.75;;
4895;SDS011;2463;49.948;8.472;2023-08-01T04:06:35;88.60;;;3.85;;
4895;SDS011;2463;49.948;8.472;2023-08-01T04:09:02;88.18;;;4.20;;
4895;SDS011;2463;49.948;8.472;2023-08-01T04:11:29;87.97;;;4.10;;
4895;SDS011;2463;49.948;8.472;2023-08-01T04:13:56;87.80;;;4.00;;
4895;SDS011;2463;49.948;8.472;2023-08-01T04:16:23;87.28;;;4.00;;
4895;SDS011;2463;49.948;8.472;2023-08-01T04:18:49;88.38;;;4.10;;
4895;SDS011;2463;49.948;8.472;2023-08-01T04:21:16;89.35;;;4.05;;
4895;SDS011;2463;49.948;8.472;2023-08-01T04:23:44;88.22;;;4.18;;
4895;SDS011;2463;49.948;8.472;2023-08-01T04:26:11;88.25;;;4.05;;
4895;SDS011;2463;49.948;8.472;2023-08-01T04:28:37;88.13;;;4.05;;
4895;SDS011;2463;49.948;8.472;2023-08-01T04:31:04;90.40;;;4.18;;
4895;SDS011;2463;49.948;8.472;2023-08-01T04:33:31;87.20;;;3.80;;
4895;SDS011;2463;49.948;8.472;2023-08-01T04:35:58;87.70;;;4.22;;
4895;SDS011;2463;49.948;8.472;2023-08-01T04:38:24;88.22;;;4.50;;
4895;SDS011;2463;49.948;8.472;2023-08-01T04:40:51;87.68;;;4.30;;
4895;SDS011;2463;49.948;8.472;2023-08-01T04:43:18;87.55;;;3.95;;
4895;SDS011;2463;49.948;8.472;2023-08-01T04:45:45;87.65;;;3.90;;
4895;SDS011;2463;49.948;8.472;2023-08-01T04:48:12;89.50;;;4.30;;
4895;SDS011;2463;49.948;8.472;2023-08-01T04:50:38;87.72;;;4.18;;
4895;SDS011;2463;49.948;8.472;2023-08-01T04:53:05;88.55;;;3.88;;
4895;SDS011;2463;49.948;8.472;2023-08-01T04:55:32;87.60;;;3.90;;
4895;SDS011;2463;49.948;8.472;2023-08-01T04:57:59;88.07;;;4.13;;
4895;SDS011;2463;49.948;8.472;2023-08-01T05:00:25;87.95;;;4.07;;
4895;SDS011;2463;49.948;8.472;2023-08-01T05:02:52;88.03;;;4.20;;
4895;SDS011;2463;49.948;8.472;2023-08-01T05:05:19;87.32;;;4.00;;
4895;SDS011;2463;49.948;8.472;2023-08-01T05:07:46;87.75;;;4.15;;
4895;SDS011;2463;49.948;8.472;2023-08-01T05:10:13;87.45;;;3.70;;
4895;SDS011;2463;49.948;8.472;2023-08-01T05:12:42;87.72;;;3.63;;
4895;SDS011;2463;49.948;8.472;2023-08-01T05:15:09;87.38;;;3.80;;
4895;SDS011;2463;49.948;8.472;2023-08-01T05:17:36;91.55;;;4.40;;
4895;SDS011;2463;49.948;8.472;2023-08-01T05:20:03;87.63;;;3.65;;
4895;SDS011;2463;49.948;8.472;2023-08-01T05:22:30;87.50;;;3.90;;
4895;SDS011;2463;49.948;8.472;2023-08-01T05:24:57;90.32;;;4.35;;
4895;SDS011;2463;49.948;8.472;2023-08-01T05:27:24;87.18;;;3.90;;
4895;SDS011;2463;49.948;8.472;2023-08-01T05:29:50;87.78;;;4.00;;
4895;SDS011;2463;49.948;8.472;2023-08-01T05:32:17;87.55;;;3.95;;
4895;SDS011;2463;49.948;8.472;2023-08-01T05:34:44;87.35;;;4.05;;
4895;SDS011;2463;49.948;8.472;2023-08-01T05:37:11;87.22;;;4.03;;
4895;SDS011;2463;49.948;8.472;2023-08-01T05:39:38;86.82;;;3.40;;
4895;SDS011;2463;49.948;8.472;2023-08-01T05:42:05;88.68;;;3.92;;
4895;SDS011;2463;49.948;8.472;2023-08-01T05:44:34;88.28;;;4.18;;
4895;SDS011;2463;49.948;8.472;2023-08-01T05:47:01;89.65;;;3.80;;
4895;SDS011;2463;49.948;8.472;2023-08-01T05:49:28;87.22;;;3.70;;
4895;SDS011;2463;49.948;8.472;2023-08-01T05:51:56;87.50;;;3.70;;
4895;SDS011;2463;49.948;8.472;2023-08-01T05:54:23;88.38;;;3.95;;
4895;SDS011;2463;49.948;8.472;2023-08-01T05:56:49;87.53;;;3.90;;
4895;SDS011;2463;49.948;8.472;2023-08-01T05:59:16;87.82;;;4.30;;
4895;SDS011;2463;49.948;8.472;2023-08-01T06:01:43;87.40;;;3.70;;
4895;SDS011;2463;49.948;8.472;2023-08-01T06:04:10;87.65;;;3.90;;
4895;SDS011;2463;49.948;8.472;2023-08-01T06:06:37;88.32;;;4.25;;
4895;SDS011;2463;49.948;8.472;2023-08-01T06:09:04;88.43;;;4.63;;
4895;SDS011;2463;49.948;8.472;2023-08-01T06:11:31;88.55;;;3.90;;
4895;SDS011;2463;49.948;8.472;2023-08-01T06:13:59;91.13;;;4.93;;
4895;SDS011;2463;49.948;8.472;2023-08-01T06:16:26;88.88;;;4.13;;
4895;SDS011;2463;49.948;8.472;2023-08-01T06:18:53;89.70;;;5.10;;
4895;SDS011;2463;49.948;8.472;2023-08-01T06:21:20;88.00;;;4.05;;
4895;SDS011;2463;49.948;8.472;2023-08-01T06:23:47;91.32;;;4.35;;
4895;SDS011;2463;49.948;8.472;2023-08-01T06:26:13;88.22;;;4.15;;
4895;SDS011;2463;49.948;8.472;2023-08-01T06:28:41;89.18;;;4.75;;
4895;SDS011;2463;49.948;8.472;2023-08-01T06:31:08;89.32;;;3.97;;
4895;SDS011;2463;49.948;8.472;2023-08-01T06:33:35;89.30;;;4.45;;
4895;SDS011;2463;49.948;8.472;2023-08-01T06:36:02;87.25;;;3.60;;
4895;SDS011;2463;49.948;8.472;2023-08-01T06:38:29;88.03;;;4.05;;
4895;SDS011;2463;49.948;8.472;2023-08-01T06:40:56;88.00;;;4.10;;
4895;SDS011;2463;49.948;8.472;2023-08-01T06:43:23;89.28;;;4.10;;
4895;SDS011;2463;49.948;8.472;2023-08-01T06:45:50;87.13;;;3.95;;
4895;SDS011;2463;49.948;8.472;2023-08-01T06:48:17;87.10;;;3.78;;
4895;SDS011;2463;49.948;8.472;2023-08-01T06:50:44;87.63;;;3.92;;
4895;SDS011;2463;49.948;8.472;2023-08-01T06:53:11;86.68;;;3.72;;
4895;SDS011;2463;49.948;8.472;2023-08-01T06:55:38;87.25;;;3.38;;
4895;SDS011;2463;49.948;8.472;2023-08-01T06:58:05;86.43;;;3.30;;
4895;SDS011;2463;49.948;8.472;2023-08-01T07:00:32;86.75;;;3.35;;
4895;SDS011;2463;49.948;8.472;2023-08-01T07:02:59;86.50;;;3.40;;
4895;SDS011;2463;49.948;8.472;2023-08-01T07:05:25;87.72;;;3.63;;
4895;SDS011;2463;49.948;8.472;2023-08-01T07:07:52;87.22;;;3.53;;
4895;SDS011;2463;49.948;8.472;2023-08-01T07:10:19;86.63;;;3.50;;
4895;SDS011;2463;49.948;8.472;2023-08-01T07:12:46;86.05;;;3.45;;
4895;SDS011;2463;49.948;8.472;2023-08-01T07:15:13;86.22;;;3.35;;
4895;SDS011;2463;49.948;8.472;2023-08-01T07:17:40;86.13;;;3.25;;
4895;SDS011;2463;49.948;8.472;2023-08-01T07:20:07;86.13;;;3.47;;
4895;SDS011;2463;49.948;8.472;2023-08-01T07:22:34;86.25;;;3.30;;
4895;SDS011;2463;49.948;8.472;2023-08-01T07:25:01;85.63;;;3.10;;
4895;SDS011;2463;49.948;8.472;2023-08-01T07:27:28;85.80;;;3.45;;
4895;SDS011;2463;49.948;8.472;2023-08-01T07:29:54;85.95;;;3.20;;
4895;SDS011;2463;49.948;8.472;2023-08-01T07:32:21;85.75;;;3.20;;
4895;SDS011;2463;49.948;8.472;2023-08-01T07:34:48;85.43;;;3.20;;
4895;SDS011;2463;49.948;8.472;2023-08-01T07:37:14;85.90;;;3.25;;
4895;SDS011;2463;49.948;8.472;2023-08-01T07:39:41;85.65;;;3.20;;
4895;SDS011;2463;49.948;8.472;2023-08-01T07:42:08;85.18;;;3.17;;
4895;SDS011;2463;49.948;8.472;2023-08-01T07:44:35;85.32;;;3.10;;
4895;SDS011;2463;49.948;8.472;2023-08-01T07:47:01;85.30;;;3.10;;
4895;SDS011;2463;49.948;8.472;2023-08-01T07:49:28;85.07;;;3.13;;
4895;SDS011;2463;49.948;8.472;2023-08-01T07:51:55;85.10;;;3.10;;
4895;SDS011;2463;49.948;8.472;2023-08-01T07:54:23;85.82;;;3.10;;
4895;SDS011;2463;49.948;8.472;2023-08-01T07:56:50;84.90;;;2.95;;
4895;SDS011;2463;49.948;8.472;2023-08-01T07:59:17;85.72;;;3.33;;
4895;SDS011;2463;49.948;8.472;2023-08-01T08:01:43;85.38;;;3.10;;
4895;SDS011;2463;49.948;8.472;2023-08-01T08:04:10;83.90;;;2.90;;
4895;SDS011;2463;49.948;8.472;2023-08-01T08:06:37;83.53;;;2.88;;
4895;SDS011;2463;49.948;8.472;2023-08-01T08:09:05;83.80;;;2.92;;
4895;SDS011;2463;49.948;8.472;2023-08-01T08:11:32;83.65;;;2.75;;
4895;SDS011;2463;49.948;8.472;2023-08-01T08:13:59;83.55;;;2.80;;
4895;SDS011;2463;49.948;8.472;2023-08-01T08:16:26;83.13;;;2.90;;
4895;SDS011;2463;49.948;8.472;2023-08-01T08:18:53;82.53;;;2.78;;
4895;SDS011;2463;49.948;8.472;2023-08-01T08:21:20;83.45;;;3.00;;
4895;SDS011;2463;49.948;8.472;2023-08-01T08:23:47;82.80;;;2.70;;
4895;SDS011;2463;49.948;8.472;2023-08-01T08:26:13;82.65;;;2.50;;
4895;SDS011;2463;49.948;8.472;2023-08-01T08:28:40;83.93;;;3.15;;
4895;SDS011;2463;49.948;8.472;2023-08-01T08:31:08;82.35;;;2.80;;
4895;SDS011;2463;49.948;8.472;2023-08-01T08:33:35;82.95;;;2.80;;
4895;SDS011;2463;49.948;8.472;2023-08-01T08:36:02;83.63;;;2.83;;
4895;SDS011;2463;49.948;8.472;2023-08-01T08:38:29;82.90;;;2.70;;
4895;SDS011;2463;49.948;8.472;2023-08-01T08:41:02;82.70;;;2.70;;
4895;SDS011;2463;49.948;8.472;2023-08-01T08:43:36;83.57;;;2.88;;
4895;SDS011;2463;49.948;8.472;2023-08-01T08:46:04;82.75;;;2.88;;
4895;SDS011;2463;49.948;8.472;2023-08-01T08:48:31;82.65;;;2.78;;
4895;SDS011;2463;49.948;8.472;2023-08-01T08:51:00;81.10;;;2.73;;
4895;SDS011;2463;49.948;8.472;2023-08-01T08:53:27;81.28;;;2.65;;
4895;SDS011;2463;49.948;8.472;2023-08-01T08:55:56;82.22;;;2.70;;
4895;SDS011;2463;49.948;8.472;2023-08-01T08:58:24;81.97;;;2.57;;
4895;SDS011;2463;49.948;8.472;2023-08-01T09:00:51;82.05;;;2.78;;
4895;SDS011;2463;49.948;8.472;2023-08-01T09:03:18;81.67;;;2.60;;
4895;SDS011;2463;49.948;8.472;2023-08-01T09:05:53;82.35;;;2.53;;
4895;SDS011;2463;49.948;8.472;2023-08-01T09:08:25;82.37;;;2.70;;
4895;SDS011;2463;49.948;8.472;2023-08-01T09:10:56;82.47;;;2.90;;
4895;SDS011;2463;49.948;8.472;2023-08-01T09:13:23;81.70;;;2.57;;
4895;SDS011;2463;49.948;8.472;2023-08-01T09:15:50;82.60;;;2.80;;
4895;SDS011;2463;49.948;8.472;2023-08-01T09:18:17;82.07;;;2.67;;
4895;SDS011;2463;49.948;8.472;2023-08-01T09:20:45;82.95;;;2.88;;
4895;SDS011;2463;49.948;8.472;2023-08-01T09:23:14;81.67;;;3.20;;
4895;SDS011;2463;49.948;8.472;2023-08-01T09:25:42;83.05;;;2.90;;
4895;SDS011;2463;49.948;8.472;2023-08-01T09:28:18;81.77;;;2.70;;
4895;SDS011;2463;49.948;8.472;2023-08-01T09:30:53;81.93;;;2.50;;
4895;SDS011;2463;49.948;8.472;2023-08-01T09:33:22;83.32;;;3.00;;
4895;SDS011;2463;49.948;8.472;2023-08-01T09:35:49;82.70;;;2.93;;
4895;SDS011;2463;49.948;8.472;2023-08-01T09:38:16;83.80;;;2.90;;
4895;SDS011;2463;49.948;8.472;2023-08-01T09:40:44;82.95;;;2.65;;
4895;SDS011;2463;49.948;8.472;2023-08-01T09:43:12;83.70;;;2.90;;
4895;SDS011;2463;49.948;8.472;2023-08-01T09:45:52;82.85;;;2.80;;
4895;SDS011;2463;49.948;8.472;2023-08-01T09:48:24;83.13;;;2.73;;
4895;SDS011;2463;49.948;8.472;2023-08-01T09:51:04;82.60;;;2.97;;
4895;SDS011;2463;49.948;8.472;2023-08-01T09:53:32;82.97;;;2.88;;
4895;SDS011;2463;49.948;8.472;2023-08-01T09:56:02;83.30;;;2.67;;
4895;SDS011;2463;49.948;8.472;2023-08-01T09:58:31;82.18;;;3.00;;
4895;SDS011;2463;49.948;8.472;2023-08-01T10:01:00;81.97;;;2.60;;
4895;SDS011;2463;49.948;8.472;2023-08-01T10:03:28;83.35;;;2.80;;
4895;SDS011;2463;49.948;8.472;2023-08-01T10:05:55;82.95;;;3.00;;
4895;SDS011;2463;49.948;8.472;2023-08-01T10:08:24;82.63;;;2.97;;
4895;SDS011;2463;49.948;8.472;2023-08-01T10:10:51;84.57;;;2.85;;
4895;SDS011;2463;49.948;8.472;2023-08-01T10:13:23;83.35;;;2.75;;
4895;SDS011;2463;49.948;8.472;2023-08-01T10:15:50;83.85;;;2.95;;
4895;SDS011;2463;49.948;8.472;2023-08-01T10:18:18;82.75;;;2.50;;
4895;SDS011;2463;49.948;8.472;2023-08-01T10:20:45;82.00;;;2.90;;
4895;SDS011;2463;49.948;8.472;2023-08-01T10:23:13;82.07;;;2.70;;
4895;SDS011;2463;49.948;8.472;2023-08-01T10:25:40;83.70;;;2.90;;
4895;SDS011;2463;49.948;8.472;2023-08-01T10:28:07;82.87;;;2.80;;
4895;SDS011;2463;49.948;8.472;2023-08-01T10:30:34;82.07;;;2.87;;
4895;SDS011;2463;49.948;8.472;2023-08-01T10:33:01;81.07;;;2.60;;
4895;SDS011;2463;49.948;8.472;2023-08-01T10:35:34;82.90;;;2.78;;
4895;SDS011;2463;49.948;8.472;2023-08-01T10:38:12;83.28;;;2.92;;
4895;SDS011;2463;49.948;8.472;2023-08-01T10:40:42;82.60;;;2.90;;
4895;SDS011;2463;49.948;8.472;2023-08-01T10:43:18;82.93;;;2.90;;
4895;SDS011;2463;49.948;8.472;2023-08-01T10:45:47;82.95;;;2.90;;
4895;SDS011;2463;49.948;8.472;2023-08-01T10:48:14;83.63;;;2.88;;
4895;SDS011;2463;49.948;8.472;2023-08-01T10:50:41;84.10;;;3.10;;
4895;SDS011;2463;49.948;8.472;2023-08-01T10:53:08;82.95;;;2.85;;
4895;SDS011;2463;49.948;8.472;2023-08-01T10:55:40;82.28;;;2.90;;
4895;SDS011;2463;49.948;8.472;2023-08-01T10:58:11;82.10;;;2.80;;
4895;SDS011;2463;49.948;8.472;2023-08-01T11:00:38;82.68;;;3.00;;
4895;SDS011;2463;49.948;8.472;2023-08-01T11:03:06;82.55;;;2.90;;
4895;SDS011;2463;49.948;8.472;2023-08-01T11:05:33;81.97;;;2.87;;
4895;SDS011;2463;49.948;8.472;2023-08-01T11:08:00;82.22;;;2.47;;
4895;SDS011;2463;49.948;8.472;2023-08-01T11:10:29;81.67;;;2.83;;
4895;SDS011;2463;49.948;8.472;2023-08-01T11:12:58;81.63;;;2.60;;
4895;SDS011;2463;49.948;8.472;2023-08-01T11:15:25;82.37;;;2.90;;
4895;SDS011;2463;49.948;8.472;2023-08-01T11:17:53;81.60;;;2.60;;
4895;SDS011;2463;49.948;8.472;2023-08-01T11:20:21;80.77;;;2.83;;
4895;SDS011;2463;49.948;8.472;2023-08-01T11:25:19;82.43;;;2.80;;
4895;SDS011;2463;49.948;8.472;2023-08-01T11:27:56;80.40;;;2.60;;
4895;SDS011;2463;49.948;8.472;2023-08-01T11:30:29;80.67;;;2.60;;
4895;SDS011;2463;49.948;8.472;2023-08-01T11:32:59;80.77;;;2.83;;
4895;SDS011;2463;49.948;8.472;2023-08-01T11:35:29;80.60;;;2.50;;
4895;SDS011;2463;49.948;8.472;2023-08-01T11:37:56;80.90;;;2.83;;
4895;SDS011;2463;49.948;8.472;2023-08-01T11:40:24;80.57;;;2.90;;
4895;SDS011;2463;49.948;8.472;2023-08-01T11:42:57;81.50;;;3.10;;
4895;SDS011;2463;49.948;8.472;2023-08-01T11:45:24;80.77;;;2.63;;
4895;SDS011;2463;49.948;8.472;2023-08-01T11:47:52;82.10;;;2.90;;
4895;SDS011;2463;49.948;8.472;2023-08-01T11:50:22;81.20;;;2.60;;
4895;SDS011;2463;49.948;8.472;2023-08-01T11:52:50;81.20;;;2.60;;
4895;SDS011;2463;49.948;8.472;2023-08-01T11:55:21;81.00;;;2.70;;
4895;SDS011;2463;49.948;8.472;2023-08-01T11:57:54;81.30;;;2.90;;
4895;SDS011;2463;49.948;8.472;2023-08-01T12:00:23;81.30;;;2.80;;
4895;SDS011;2463;49.948;8.472;2023-08-01T12:02:51;80.90;;;2.80;;
4895;SDS011;2463;49.948;8.472;2023-08-01T12:05:30;80.70;;;2.80;;
4895;SDS011;2463;49.948;8.472;2023-08-01T12:08:07;80.60;;;2.63;;
4895;SDS011;2463;49.948;8.472;2023-08-01T12:10:41;80.40;;;2.60;;
4895;SDS011;2463;49.948;8.472;2023-08-01T12:13:19;79.40;;;2.60;;
4895;SDS011;2463;49.948;8.472;2023-08-01T12:15:50;80.50;;;2.50;;
4895;SDS011;2463;49.948;8.472;2023-08-01T12:18:24;79.20;;;2.50;;
4895;SDS011;2463;49.948;8.472;2023-08-01T12:20:56;80.40;;;2.60;;
4895;SDS011;2463;49.948;8.472;2023-08-01T12:23:23;80.20;;;2.40;;
4895;SDS011;2463;49.948;8.472;2023-08-01T12:25:49;80.50;;;2.57;;
4895;SDS011;2463;49.948;8.472;2023-08-01T12:28:16;80.50;;;2.43;;
4895;SDS011;2463;49.948;8.472;2023-08-01T12:30:43;80.80;;;2.60;;
4895;SDS011;2463;49.948;8.472;2023-08-01T12:33:10;80.57;;;2.50;;
4895;SDS011;2463;49.948;8.472;2023-08-01T12:35:40;80.30;;;2.57;;
4895;SDS011;2463;49.948;8.472;2023-08-01T12:38:08;80.00;;;2.60;;
4895;SDS011;2463;49.948;8.472;2023-08-01T12:40:35;82.40;;;2.83;;
4895;SDS011;2463;49.948;8.472;2023-08-01T12:43:02;80.57;;;2.63;;
4895;SDS011;2463;49.948;8.472;2023-08-01T12:45:29;80.87;;;2.80;;
4895;SDS011;2463;49.948;8.472;2023-08-01T12:47:56;80.60;;;2.63;;
4895;SDS011;2463;49.948;8.472;2023-08-01T12:50:23;81.77;;;2.60;;
4895;SDS011;2463;49.948;8.472;2023-08-01T12:52:49;80.10;;;2.70;;
4895;SDS011;2463;49.948;8.472;2023-08-01T12:55:16;79.67;;;2.57;;
4895;SDS011;2463;49.948;8.472;2023-08-01T12:57:43;80.80;;;2.63;;
4895;SDS011;2463;49.948;8.472;2023-08-01T13:00:10;81.47;;;2.60;;
4895;SDS011;2463;49.948;8.472;2023-08-01T13:02:37;83.67;;;2.83;;
4895;SDS011;2463;49.948;8.472;2023-08-01T13:05:04;80.97;;;2.60;;
4895;SDS011;2463;49.948;8.472;2023-08-01T13:07:31;80.93;;;2.85;;
4895;SDS011;2463;49.948;8.472;2023-08-01T13:09:59;84.47;;;3.00;;
4895;SDS011;2463;49.948;8.472;2023-08-01T13:12:26;81.17;;;2.80;;
4895;SDS011;2463;49.948;8.472;2023-08-01T13:14:52;81.17;;;2.53;;
4895;SDS011;2463;49.948;8.472;2023-08-01T13:17:39;81.30;;;2.70;;
4895;SDS011;2463;49.948;8.472;2023-08-01T13:20:06;81.20;;;2.77;;
4895;SDS011;2463;49.948;8.472;2023-08-01T13:22:33;80.83;;;2.80;;
4895;SDS011;2463;49.948;8.472;2023-08-01T13:25:00;80.93;;;2.67;;
4895;SDS011;2463;49.948;8.472;2023-08-01T13:27:28;81.13;;;2.70;;
4895;SDS011;2463;49.948;8.472;2023-08-01T13:29:55;81.80;;;2.80;;
4895;SDS011;2463;49.948;8.472;2023-08-01T13:32:21;81.67;;;2.87;;
4895;SDS011;2463;49.948;8.472;2023-08-01T13:34:48;81.07;;;2.70;;
4895;SDS011;2463;49.948;8.472;2023-08-01T13:37:15;81.97;;;2.97;;
4895;SDS011;2463;49.948;8.472;2023-08-01T13:39:42;80.40;;;2.73;;
4895;SDS011;2463;49.948;8.472;2023-08-01T13:42:09;80.00;;;2.53;;
4895;SDS011;2463;49.948;8.472;2023-08-01T13:44:36;81.30;;;2.90;;
4895;SDS011;2463;49.948;8.472;2023-08-01T13:47:02;80.43;;;2.80;;
4895;SDS011;2463;49.948;8.472;2023-08-01T13:49:30;80.60;;;2.57;;
4895;SDS011;2463;49.948;8.472;2023-08-01T13:51:57;82.73;;;2.73;;
4895;SDS011;2463;49.948;8.472;2023-08-01T13:54:23;80.87;;;2.70;;
4895;SDS011;2463;49.948;8.472;2023-08-01T13:56:50;82.77;;;3.07;;
4895;SDS011;2463;49.948;8.472;2023-08-01T13:59:18;82.03;;;2.70;;
4895;SDS011;2463;49.948;8.472;2023-08-01T14:01:45;82.27;;;2.73;;
4895;SDS011;2463;49.948;8.472;2023-08-01T14:04:12;82.53;;;2.75;;
4895;SDS011;2463;49.948;8.472;2023-08-01T14:06:42;84.50;;;3.00;;
4895;SDS011;2463;49.948;8.472;2023-08-01T14:09:10;84.40;;;3.08;;
4895;SDS011;2463;49.948;8.472;2023-08-01T14:11:37;84.53;;;2.92;;
4895;SDS011;2463;49.948;8.472;2023-08-01T14:14:05;85.45;;;3.40;;
4895;SDS011;2463;49.948;8.472;2023-08-01T14:16:32;85.13;;;2.90;;
4895;SDS011;2463;49.948;8.472;2023-08-01T14:18:59;85.00;;;3.05;;
4895;SDS011;2463;49.948;8.472;2023-08-01T14:21:26;87.85;;;3.40;;
4895;SDS011;2463;49.948;8.472;2023-08-01T14:23:53;85.03;;;3.13;;
4895;SDS011;2463;49.948;8.472;2023-08-01T14:26:19;85.40;;;3.20;;
4895;SDS011;2463;49.948;8.472;2023-08-01T14:28:46;85.28;;;3.30;;
4895;SDS011;2463;49.948;8.472;2023-08-01T14:31:14;86.85;;;3.83;;
4895;SDS011;2463;49.948;8.472;2023-08-01T14:33:40;85.32;;;3.25;;
4895;SDS011;2463;49.948;8.472;2023-08-01T14:36:08;85.25;;;3.58;;
4895;SDS011;2463;49.948;8.472;2023-08-01T14:38:36;85.13;;;3.40;;
4895;SDS011;2463;49.948;8.472;2023-08-01T14:41:02;85.53;;;3.35;;
4895;SDS011;2463;49.948;8.472;2023-08-01T14:43:47;85.80;;;3.50;;
4895;SDS011;2463;49.948;8.472;2023-08-01T14:46:14;86.22;;;3.38;;
4895;SDS011;2463;49.948;8.472;2023-08-01T14:48:41;85.13;;;3.28;;
4895;SDS011;2463;49.948;8.472;2023-08-01T14:51:07;86.18;;;3.50;;
4895;SDS011;2463;49.948;8.472;2023-08-01T14:53:34;85.63;;;3.28;;
4895;SDS011;2463;49.948;8.472;2023-08-01T14:56:01;85.97;;;3.10;;
4895;SDS011;2463;49.948;8.472;2023-08-01T14:58:31;84.75;;;3.30;;
4895;SDS011;2463;49.948;8.472;2023-08-01T15:00:58;87.78;;;3.53;;
4895;SDS011;2463;49.948;8.472;2023-08-01T15:03:25;84.53;;;3.25;;
4895;SDS011;2463;49.948;8.472;2023-08-01T15:05:52;84.82;;;3.30;;